createdAt,value
2022-08-21T00:01:10.160Z,3.42
2022-08-21T00:03:40.355Z,3.70
2022-08-21T00:06:13.870Z,3.65
2022-08-21T00:08:43.987Z,4.05
2022-08-21T00:11:16.519Z,3.95
2022-08-21T00:13:46.743Z,3.95
2022-08-21T00:16:16.514Z,4.00
2022-08-21T00:18:46.548Z,4.10
2022-08-21T00:21:16.660Z,3.90
2022-08-21T00:23:46.485Z,4.38
2022-08-21T00:26:18.989Z,4.05
2022-08-21T00:28:50.105Z,4.55
2022-08-21T00:31:20.157Z,4.20
2022-08-21T00:33:50.220Z,4.68
2022-08-21T00:36:20.179Z,3.80
2022-08-21T00:38:49.936Z,4.78
2022-08-21T00:41:38.550Z,4.28
2022-08-21T00:44:10.121Z,4.47
2022-08-21T00:46:41.632Z,3.97
2022-08-21T00:49:12.715Z,4.15
2022-08-21T00:51:46.236Z,4.32
2022-08-21T00:54:18.441Z,3.80
2022-08-21T00:56:56.008Z,3.83
2022-08-21T00:59:30.521Z,4.43
2022-08-21T01:02:00.348Z,3.97
2022-08-21T01:04:30.417Z,4.20
2022-08-21T01:07:00.368Z,4.00
2022-08-21T01:09:31.146Z,3.75
2022-08-21T01:12:04.230Z,4.15
2022-08-21T01:14:34.253Z,4.15
2022-08-21T01:17:05.721Z,4.10
2022-08-21T01:19:35.790Z,3.80
2022-08-21T01:22:08.416Z,3.88
2022-08-21T01:24:38.267Z,4.00
2022-08-21T01:27:08.513Z,4.07
2022-08-21T01:29:42.321Z,4.45
2022-08-21T01:32:17.233Z,4.75
2022-08-21T01:34:49.762Z,4.30
2022-08-21T01:37:24.575Z,4.32
2022-08-21T01:39:54.669Z,4.55
2022-08-21T01:42:24.487Z,4.47
2022-08-21T01:44:54.751Z,4.47
2022-08-21T01:47:26.395Z,4.30
2022-08-21T01:49:56.411Z,4.65
2022-08-21T01:52:28.861Z,4.80
2022-08-21T01:54:58.741Z,4.97
2022-08-21T01:57:28.713Z,4.18
2022-08-21T01:59:58.660Z,4.80
2022-08-21T02:02:28.440Z,4.53
2022-08-21T02:04:58.240Z,4.50
2022-08-21T02:07:30.673Z,4.57
2022-08-21T02:10:00.470Z,4.70
2022-08-21T02:12:30.283Z,4.75
2022-08-21T02:15:00.001Z,4.53
2022-08-21T02:17:29.946Z,4.40
2022-08-21T02:19:59.703Z,4.85
2022-08-21T02:22:32.159Z,4.30
2022-08-21T02:25:01.904Z,4.07
2022-08-21T02:27:31.833Z,4.68
2022-08-21T02:30:04.881Z,4.13
2022-08-21T02:32:34.913Z,4.70
2022-08-21T02:35:04.711Z,4.32
2022-08-21T02:37:37.263Z,4.45
2022-08-21T02:40:08.457Z,4.38
2022-08-21T02:42:38.412Z,5.15
2022-08-21T02:45:09.349Z,4.97
2022-08-21T02:47:39.169Z,4.07
2022-08-21T02:50:10.205Z,4.70
2022-08-21T02:52:42.635Z,4.78
2022-08-21T02:55:12.426Z,4.55
2022-08-21T02:57:42.195Z,4.75
2022-08-21T03:00:14.763Z,4.45
2022-08-21T03:02:46.927Z,4.60
2022-08-21T03:05:17.489Z,4.82
2022-08-21T03:07:51.239Z,4.30
2022-08-21T03:10:21.076Z,5.00
2022-08-21T03:12:51.099Z,5.05
2022-08-21T03:15:24.789Z,4.43
2022-08-21T03:17:55.676Z,4.78
2022-08-21T03:20:27.996Z,5.10
2022-08-21T03:23:00.737Z,4.50
2022-08-21T03:25:40.489Z,5.00
2022-08-21T03:28:14.047Z,5.22
2022-08-21T03:30:45.036Z,5.30
2022-08-21T03:33:15.870Z,4.97
2022-08-21T03:35:47.521Z,4.82
2022-08-21T03:38:24.600Z,5.85
2022-08-21T03:40:56.385Z,5.55
2022-08-21T03:43:26.347Z,5.05
2022-08-21T03:45:57.443Z,5.38
2022-08-21T03:48:27.332Z,5.00
2022-08-21T03:50:57.866Z,5.20
2022-08-21T03:53:31.417Z,5.63
2022-08-21T03:56:01.218Z,5.30
2022-08-21T03:58:32.152Z,4.70
2022-08-21T04:01:04.190Z,4.90
2022-08-21T04:03:34.050Z,4.68
2022-08-21T04:06:04.033Z,5.85
2022-08-21T04:08:36.488Z,5.15
2022-08-21T04:11:06.650Z,4.82
2022-08-21T04:13:44.342Z,5.55
2022-08-21T04:16:14.471Z,5.35
2022-08-21T04:18:44.521Z,5.70
2022-08-21T04:21:15.821Z,5.45
2022-08-21T04:23:49.466Z,6.03
2022-08-21T04:26:19.353Z,5.10
2022-08-21T04:28:49.095Z,5.28
2022-08-21T04:31:19.283Z,5.65
2022-08-21T04:33:49.387Z,5.32
2022-08-21T04:36:20.875Z,5.50
2022-08-21T04:38:56.958Z,5.78
2022-08-21T04:41:28.202Z,5.78
2022-08-21T04:43:58.439Z,5.82
2022-08-21T04:46:28.186Z,5.35
2022-08-21T04:48:58.209Z,5.28
2022-08-21T04:51:32.547Z,5.82
2022-08-21T04:54:10.469Z,4.93
2022-08-21T04:56:46.562Z,5.57
2022-08-21T04:59:19.661Z,6.03
2022-08-21T05:01:49.858Z,5.65
2022-08-21T05:04:22.660Z,6.03
2022-08-21T05:06:54.542Z,6.20
2022-08-21T05:09:28.125Z,5.85
2022-08-21T05:11:58.885Z,5.22
2022-08-21T05:14:28.716Z,5.45
2022-08-21T05:16:58.456Z,6.60
2022-08-21T05:19:28.713Z,5.25
2022-08-21T05:21:58.801Z,5.53
2022-08-21T05:24:31.378Z,5.75
2022-08-21T05:27:01.187Z,5.50
2022-08-21T05:29:33.742Z,4.50
2022-08-21T05:32:03.457Z,4.75
2022-08-21T05:34:33.169Z,5.03
2022-08-21T05:37:07.370Z,4.78
2022-08-21T05:40:11.809Z,5.45
2022-08-21T05:42:30.212Z,5.53
2022-08-21T05:45:00.004Z,6.05
2022-08-21T05:47:29.816Z,4.93
2022-08-21T05:49:59.565Z,6.30
2022-08-21T05:52:29.301Z,4.93
2022-08-21T05:55:01.913Z,4.60
2022-08-21T05:57:31.893Z,5.43
2022-08-21T06:00:01.642Z,5.07
2022-08-21T06:02:32.156Z,4.70
2022-08-21T06:05:01.889Z,5.97
2022-08-21T06:07:31.634Z,5.30
2022-08-21T06:10:04.166Z,4.95
2022-08-21T06:12:33.901Z,4.93
2022-08-21T06:15:03.689Z,4.75
2022-08-21T06:17:33.563Z,4.65
2022-08-21T06:20:03.323Z,4.13
2022-08-21T06:22:33.077Z,4.80
2022-08-21T06:25:05.466Z,3.95
2022-08-21T06:27:35.243Z,4.38
2022-08-21T06:30:05.010Z,4.68
2022-08-21T06:32:35.241Z,4.15
2022-08-21T06:35:05.012Z,4.78
2022-08-21T06:37:34.940Z,4.65
2022-08-21T06:40:12.544Z,3.83
2022-08-21T06:42:43.085Z,4.13
2022-08-21T06:45:14.165Z,4.00
2022-08-21T06:47:44.077Z,4.40
2022-08-21T06:50:14.099Z,4.18
2022-08-21T06:52:46.745Z,4.07
2022-08-21T06:55:21.746Z,4.63
2022-08-21T06:57:53.015Z,3.92
2022-08-21T07:00:23.757Z,4.68
2022-08-21T07:02:53.529Z,4.18
2022-08-21T07:05:23.444Z,3.53
2022-08-21T07:07:53.167Z,3.60
2022-08-21T07:10:25.656Z,3.75
2022-08-21T07:13:00.973Z,3.60
2022-08-21T07:15:32.445Z,3.85
2022-08-21T07:18:03.364Z,3.10
2022-08-21T07:20:34.676Z,3.38
2022-08-21T07:23:09.129Z,3.95
2022-08-21T07:25:41.768Z,3.50
2022-08-21T07:28:11.730Z,4.10
2022-08-21T07:30:41.536Z,3.10
2022-08-21T07:33:11.354Z,4.13
2022-08-21T07:35:41.101Z,3.00
2022-08-21T07:38:10.827Z,3.17
2022-08-21T07:40:43.225Z,3.58
2022-08-21T07:43:12.928Z,2.78
2022-08-21T07:45:42.763Z,3.30
2022-08-21T07:48:12.540Z,3.00
2022-08-21T07:50:43.676Z,3.58
2022-08-21T07:53:13.764Z,3.53
2022-08-21T07:55:46.445Z,3.63
2022-08-21T07:58:16.520Z,3.58
2022-08-21T08:00:46.356Z,3.10
2022-08-21T08:03:16.090Z,3.20
2022-08-21T08:05:59.019Z,2.90
2022-08-21T08:08:29.613Z,3.38
2022-08-21T08:11:03.824Z,2.63
2022-08-21T08:13:34.400Z,2.70
2022-08-21T08:16:04.144Z,3.33
2022-08-21T08:18:33.940Z,3.28
2022-08-21T08:21:03.719Z,3.65
2022-08-21T08:23:33.447Z,3.38
2022-08-21T08:26:06.730Z,2.80
2022-08-21T08:28:37.248Z,3.80
2022-08-21T08:31:07.170Z,3.20
2022-08-21T08:33:36.965Z,2.83
2022-08-21T08:36:07.247Z,3.67
2022-08-21T08:38:38.109Z,3.10
2022-08-21T08:41:16.342Z,2.95
2022-08-21T08:43:54.304Z,2.97
2022-08-21T08:46:34.799Z,3.42
2022-08-21T08:49:11.099Z,3.15
2022-08-21T08:51:48.040Z,3.28
2022-08-21T08:54:34.931Z,3.05
2022-08-21T08:57:14.521Z,3.22
2022-08-21T08:59:47.968Z,3.63
2022-08-21T09:02:20.006Z,3.28
2022-08-21T09:04:52.469Z,3.05
2022-08-21T09:07:32.515Z,3.25
2022-08-21T09:10:13.733Z,3.40
2022-08-21T09:12:55.209Z,3.10
2022-08-21T09:15:33.251Z,2.90
2022-08-21T09:18:29.989Z,3.03
2022-08-21T09:21:12.971Z,2.83
2022-08-21T09:23:56.578Z,2.97
2022-08-21T09:26:29.088Z,2.78
2022-08-21T09:29:03.502Z,3.30
2022-08-21T09:31:35.974Z,2.90
2022-08-21T09:34:09.440Z,2.88
2022-08-21T09:36:44.230Z,3.00
2022-08-21T09:39:16.329Z,2.70
2022-08-21T09:41:46.215Z,2.70
2022-08-21T09:44:29.624Z,2.83
2022-08-21T09:47:00.553Z,3.35
2022-08-21T09:49:35.013Z,2.75
2022-08-21T09:52:07.337Z,2.95
2022-08-21T09:54:40.939Z,2.92
2022-08-21T09:57:46.396Z,2.70
2022-08-21T10:00:30.718Z,3.33
2022-08-21T10:03:12.527Z,2.65
2022-08-21T10:05:43.600Z,2.90
2022-08-21T10:08:21.820Z,3.33
2022-08-21T10:10:56.602Z,3.00
2022-08-21T10:13:34.637Z,2.90
2022-08-21T10:16:19.828Z,2.67
2022-08-21T10:19:05.418Z,2.97
2022-08-21T10:21:42.648Z,2.30
2022-08-21T10:24:31.036Z,2.83
2022-08-21T10:27:10.043Z,2.30
2022-08-21T10:29:51.422Z,2.00
2022-08-21T10:32:56.543Z,2.20
2022-08-21T10:35:31.680Z,2.00
2022-08-21T10:38:39.239Z,1.80
2022-08-21T10:41:16.973Z,2.55
2022-08-21T10:43:56.134Z,2.20
2022-08-21T10:46:47.797Z,2.50
2022-08-21T10:49:26.844Z,2.72
2022-08-21T10:52:06.064Z,2.10
2022-08-21T10:54:44.654Z,2.53
2022-08-21T10:57:26.027Z,2.75
2022-08-21T11:00:07.073Z,2.20
2022-08-21T11:02:41.371Z,1.95
2022-08-21T11:05:17.674Z,2.10
2022-08-21T11:07:51.832Z,2.50
2022-08-21T11:10:27.120Z,2.20
2022-08-21T11:13:04.035Z,2.50
2022-08-21T11:15:42.415Z,2.30
2022-08-21T11:18:25.212Z,2.67
2022-08-21T11:21:06.857Z,2.50
2022-08-21T11:23:43.953Z,1.98
2022-08-21T11:26:19.699Z,2.30
2022-08-21T11:28:58.752Z,2.08
2022-08-21T11:31:41.740Z,1.70
2022-08-21T11:34:30.541Z,1.70
2022-08-21T11:37:12.047Z,2.45
2022-08-21T11:39:52.070Z,1.80
2022-08-21T11:42:32.563Z,1.80
2022-08-21T11:45:16.709Z,1.67
2022-08-21T11:47:58.705Z,2.15
2022-08-21T11:50:35.716Z,2.10
2022-08-21T11:53:14.083Z,1.90
2022-08-21T11:55:50.521Z,1.63
2022-08-21T11:58:27.203Z,1.67
2022-08-21T12:01:00.228Z,1.55
2022-08-21T12:03:33.523Z,2.13
2022-08-21T12:06:06.353Z,2.03
2022-08-21T12:08:40.283Z,1.80
2022-08-21T12:11:12.168Z,2.00
2022-08-21T12:13:55.740Z,1.60
2022-08-21T12:16:33.972Z,1.38
2022-08-21T12:19:08.874Z,1.50
2022-08-21T12:21:53.139Z,2.00
2022-08-21T12:24:37.715Z,1.83
2022-08-21T12:27:26.573Z,1.50
2022-08-21T12:29:59.586Z,1.60
2022-08-21T12:32:33.399Z,1.67
2022-08-21T12:35:15.157Z,1.83
2022-08-21T12:38:00.681Z,2.00
2022-08-21T12:40:40.938Z,1.83
2022-08-21T12:43:17.173Z,1.80
2022-08-21T12:45:50.139Z,1.83
2022-08-21T12:48:26.935Z,1.75
2022-08-21T12:50:59.015Z,1.50
2022-08-21T12:53:34.707Z,1.75
2022-08-21T12:56:12.774Z,1.80
2022-08-21T12:58:45.499Z,1.70
2022-08-21T13:01:24.770Z,1.60
2022-08-21T13:04:04.284Z,1.67
2022-08-21T13:06:43.050Z,1.50
2022-08-21T13:09:16.476Z,1.63
2022-08-21T13:11:51.180Z,1.92
2022-08-21T13:14:31.915Z,2.00
2022-08-21T13:17:03.689Z,1.55
2022-08-21T13:19:35.188Z,1.80
2022-08-21T13:22:34.055Z,1.90
2022-08-21T13:24:55.724Z,1.83
2022-08-21T13:27:31.493Z,1.40
2022-08-21T13:30:14.985Z,1.83
2022-08-21T13:32:48.244Z,2.08
2022-08-21T13:35:21.035Z,1.77
2022-08-21T13:37:53.305Z,1.73
2022-08-21T13:40:28.015Z,1.83
2022-08-21T13:43:01.324Z,1.70
2022-08-21T13:45:35.241Z,1.30
2022-08-21T13:48:07.328Z,1.75
2022-08-21T13:50:40.984Z,2.33
2022-08-21T13:53:23.218Z,2.47
2022-08-21T13:55:57.408Z,1.90
2022-08-21T13:58:34.777Z,1.70
2022-08-21T14:01:06.878Z,1.50
2022-08-21T14:03:42.187Z,1.80
2022-08-21T14:06:18.219Z,1.95
2022-08-21T14:08:53.667Z,1.85
2022-08-21T14:11:23.828Z,2.10
2022-08-21T14:14:03.116Z,1.92
2022-08-21T14:16:46.738Z,1.83
2022-08-21T14:19:23.676Z,2.17
2022-08-21T14:21:55.417Z,2.03
2022-08-21T14:24:35.795Z,2.00
2022-08-21T14:27:10.508Z,2.05
2022-08-21T14:29:45.364Z,2.50
2022-08-21T14:32:24.664Z,2.17
2022-08-21T14:34:59.187Z,2.15
2022-08-21T14:37:29.440Z,2.03
2022-08-21T14:39:59.320Z,2.08
2022-08-21T14:42:29.642Z,2.08
2022-08-21T14:45:06.586Z,1.98
2022-08-21T14:47:37.923Z,2.13
2022-08-21T14:50:08.192Z,2.20
2022-08-21T14:52:37.984Z,2.03
2022-08-21T14:55:09.038Z,1.92
2022-08-21T14:57:39.540Z,2.00
2022-08-21T15:00:14.253Z,2.17
2022-08-21T15:02:44.107Z,2.75
2022-08-21T15:05:14.074Z,2.33
2022-08-21T15:07:45.780Z,2.00
2022-08-21T15:10:15.837Z,2.50
2022-08-21T15:12:45.654Z,2.72
2022-08-21T15:15:18.097Z,1.80
2022-08-21T15:17:48.686Z,2.22
2022-08-21T15:20:18.898Z,2.20
2022-08-21T15:22:48.611Z,2.30
2022-08-21T15:25:20.043Z,1.98
2022-08-21T15:27:49.769Z,2.33
2022-08-21T15:30:22.299Z,2.17
2022-08-21T15:32:52.663Z,2.10
2022-08-21T15:35:22.786Z,2.40
2022-08-21T15:37:52.541Z,1.73
2022-08-21T15:40:22.455Z,2.20
2022-08-21T15:42:53.984Z,2.22
2022-08-21T15:45:26.364Z,2.58
2022-08-21T15:47:56.884Z,2.03
2022-08-21T15:50:27.897Z,2.38
2022-08-21T15:52:57.750Z,2.15
2022-08-21T15:55:27.710Z,2.28
2022-08-21T15:57:59.920Z,2.40
2022-08-21T16:00:36.637Z,2.40
2022-08-21T16:03:11.495Z,2.58
2022-08-21T16:05:41.311Z,2.58
2022-08-21T16:08:11.052Z,2.28
2022-08-21T16:10:41.729Z,2.63
2022-08-21T16:13:18.853Z,2.28
2022-08-21T16:15:51.213Z,2.33
2022-08-21T16:18:21.830Z,2.38
2022-08-21T16:20:52.014Z,2.50
2022-08-21T16:23:22.276Z,2.42
2022-08-21T16:25:53.262Z,2.20
2022-08-21T16:28:24.865Z,2.10
2022-08-21T16:30:57.275Z,2.17
2022-08-21T16:33:33.310Z,2.20
2022-08-21T16:36:04.240Z,2.30
2022-08-21T16:38:34.757Z,2.10
2022-08-21T16:41:08.562Z,2.40
2022-08-21T16:43:38.885Z,2.20
2022-08-21T16:46:13.487Z,2.22
2022-08-21T16:48:45.018Z,2.67
2022-08-21T16:51:15.570Z,2.15
2022-08-21T16:53:45.655Z,2.35
2022-08-21T16:56:17.283Z,2.10
2022-08-21T16:58:50.898Z,2.13
2022-08-21T17:01:28.127Z,2.42
2022-08-21T17:03:58.143Z,2.00
2022-08-21T17:06:30.428Z,2.30
2022-08-21T17:09:01.275Z,2.08
2022-08-21T17:11:38.656Z,1.73
2022-08-21T17:14:12.116Z,2.05
2022-08-21T17:16:49.076Z,2.10
2022-08-21T17:19:19.249Z,2.28
2022-08-21T17:21:49.106Z,1.90
2022-08-21T17:24:18.924Z,2.40
2022-08-21T17:26:49.349Z,2.60
2022-08-21T17:29:30.097Z,2.55
2022-08-21T17:32:02.745Z,2.17
2022-08-21T17:34:32.529Z,2.10
2022-08-21T17:37:02.747Z,2.20
2022-08-21T17:39:32.555Z,2.20
2022-08-21T17:42:06.271Z,2.55
2022-08-21T17:44:37.190Z,2.42
2022-08-21T17:47:10.439Z,3.28
2022-08-21T17:49:40.388Z,2.72
2022-08-21T17:52:10.929Z,2.20
2022-08-21T17:54:41.286Z,2.47
2022-08-21T17:57:16.909Z,2.42
2022-08-21T17:59:46.804Z,2.63
2022-08-21T18:02:20.429Z,2.35
2022-08-21T18:04:51.218Z,2.50
2022-08-21T18:07:31.979Z,2.15
2022-08-21T18:10:03.164Z,2.13
2022-08-21T18:12:34.935Z,2.13
2022-08-21T18:15:05.294Z,2.20
2022-08-21T18:17:37.881Z,2.20
2022-08-21T18:20:09.164Z,2.20
2022-08-21T18:22:38.893Z,2.92
2022-08-21T18:25:09.623Z,2.67
2022-08-21T18:27:41.346Z,2.80
2022-08-21T18:30:13.156Z,2.53
2022-08-21T18:32:45.949Z,2.38
2022-08-21T18:35:18.307Z,2.25
2022-08-21T18:37:48.059Z,2.25
2022-08-21T18:40:18.285Z,2.15
2022-08-21T18:42:55.194Z,2.20
2022-08-21T18:45:26.412Z,2.45
2022-08-21T18:48:03.703Z,2.13
2022-08-21T18:50:33.625Z,1.95
2022-08-21T18:53:24.206Z,2.22
2022-08-21T18:55:54.126Z,2.30
2022-08-21T18:58:28.576Z,2.22
2022-08-21T19:00:58.475Z,2.35
2022-08-21T19:03:31.008Z,2.20
2022-08-21T19:06:01.319Z,2.45
2022-08-21T19:08:32.563Z,2.17
2022-08-21T19:11:03.133Z,2.30
2022-08-21T19:13:34.369Z,2.58
2022-08-21T19:16:05.417Z,3.42
2022-08-21T19:18:44.381Z,2.72
2022-08-21T19:21:14.250Z,2.42
2022-08-21T19:23:48.264Z,2.22
2022-08-21T19:26:24.816Z,2.70
2022-08-21T19:28:56.480Z,2.70
2022-08-21T19:31:32.544Z,2.83
2022-08-21T19:34:08.669Z,2.22
2022-08-21T19:36:39.152Z,2.60
2022-08-21T19:39:14.028Z,2.38
2022-08-21T19:41:47.164Z,2.42
2022-08-21T19:44:24.863Z,2.60
2022-08-21T19:46:57.682Z,2.30
2022-08-21T19:49:33.283Z,2.45
2022-08-21T19:52:22.084Z,2.42
2022-08-21T19:54:52.295Z,2.42
2022-08-21T19:57:22.171Z,2.60
2022-08-21T19:59:52.936Z,2.70
2022-08-21T20:02:22.653Z,2.35
2022-08-21T20:04:55.147Z,2.33
2022-08-21T20:07:26.592Z,2.63
2022-08-21T20:09:56.941Z,2.70
2022-08-21T20:12:27.141Z,2.40
2022-08-21T20:14:57.377Z,2.33
2022-08-21T20:17:27.982Z,2.75
2022-08-21T20:20:01.161Z,3.05
2022-08-21T20:22:31.087Z,3.13
2022-08-21T20:25:01.869Z,2.70
2022-08-21T20:27:31.807Z,2.78
2022-08-21T20:30:12.518Z,2.80
2022-08-21T20:35:34.848Z,2.70
2022-08-21T20:38:04.615Z,2.95
2022-08-21T20:40:34.723Z,2.75
2022-08-21T20:43:06.598Z,2.63
2022-08-21T20:45:37.952Z,2.75
2022-08-21T20:48:15.294Z,2.75
2022-08-21T20:50:51.701Z,2.88
2022-08-21T20:53:27.113Z,2.88
2022-08-21T20:56:17.681Z,2.78
2022-08-21T20:58:55.072Z,3.50
2022-08-21T21:01:26.812Z,3.28
2022-08-21T21:04:04.642Z,3.03
2022-08-21T21:06:43.143Z,2.90
2022-08-21T21:09:40.312Z,2.88
2022-08-21T21:12:17.965Z,2.38
2022-08-21T21:15:01.884Z,2.42
2022-08-21T21:17:40.253Z,2.42
2022-08-21T21:20:14.083Z,2.80
2022-08-21T21:22:57.330Z,2.75
2022-08-21T21:25:39.901Z,2.58
2022-08-21T21:28:13.829Z,2.60
2022-08-21T21:30:47.055Z,2.63
2022-08-21T21:33:25.333Z,2.60
2022-08-21T21:36:00.765Z,2.60
2022-08-21T21:38:38.878Z,2.65
2022-08-21T21:41:30.252Z,3.22
2022-08-21T21:44:14.477Z,3.35
2022-08-21T21:46:55.250Z,3.15
2022-08-21T21:49:56.267Z,2.80
2022-08-21T21:52:38.616Z,3.08
2022-08-21T21:55:23.979Z,2.67
2022-08-21T21:58:10.826Z,3.38
2022-08-21T22:00:52.429Z,2.97
2022-08-21T22:03:28.403Z,3.20
2022-08-21T22:06:01.644Z,1.90
2022-08-21T22:08:48.822Z,2.00
2022-08-21T22:11:31.852Z,2.38
2022-08-21T22:14:10.740Z,2.42
2022-08-21T22:16:41.231Z,3.63
2022-08-21T22:19:18.963Z,3.10
2022-08-21T22:21:55.028Z,2.90
2022-08-21T22:24:32.148Z,3.08
2022-08-21T22:27:09.468Z,3.42
2022-08-21T22:29:52.743Z,3.10
2022-08-21T22:32:28.965Z,3.35
2022-08-21T22:35:09.514Z,2.80
2022-08-21T22:37:41.321Z,2.92
2022-08-21T22:40:16.683Z,2.92
2022-08-21T22:43:00.299Z,3.47
2022-08-21T22:45:30.814Z,3.55
2022-08-21T22:48:14.630Z,3.13
2022-08-21T22:50:59.188Z,2.92
2022-08-21T22:53:31.888Z,2.65
2022-08-21T22:56:03.553Z,2.97
2022-08-21T22:58:40.865Z,2.92
2022-08-21T23:01:19.917Z,2.95
2022-08-21T23:03:52.681Z,2.45
2022-08-21T23:06:31.151Z,3.40
2022-08-21T23:09:02.352Z,3.00
2022-08-21T23:11:41.141Z,3.50
2022-08-21T23:14:16.654Z,2.90
2022-08-21T23:16:55.640Z,3.30
2022-08-21T23:19:38.234Z,3.13
2022-08-21T23:22:18.691Z,3.60
2022-08-21T23:25:02.796Z,3.72
2022-08-21T23:27:44.889Z,2.83
2022-08-21T23:30:21.403Z,3.30
2022-08-21T23:33:12.080Z,3.20
2022-08-21T23:36:00.708Z,3.33
2022-08-21T23:38:46.207Z,3.03
2022-08-21T23:41:34.226Z,3.15
2022-08-21T23:44:19.254Z,3.20
2022-08-21T23:47:06.113Z,3.33
2022-08-21T23:49:53.856Z,3.50
2022-08-21T23:52:33.332Z,3.25
2022-08-21T23:55:20.994Z,3.17
2022-08-21T23:57:59.352Z,3.50
